Terminal Aerodrome Forecast
Issued by NWS

Home | Current Version | Previous Version | Graphics & Text | Print | Product List | Glossary On
Versions: 1 2 3 4 5 6 7 8 9 10 11 12 13 14 15 16 17 18 19 20 21 22 23 24 25 26 27 28 29 30 31 32 33 34 35 36 37 38 39 40 41 42 43 44 45 46 47 48 49 50
000
FTUS45 KBOU 010103 AAB
TAFAPA
TAF AMD
KAPA 010103Z 0101/0124 30015G22KT P6SM SCT050 BKN100 BKN220
     FM010200 29012KT P6SM BKN100 BKN180
     FM010600 21008KT P6SM BKN100 BKN140
     FM011500 33006KT P6SM FEW090 SCT140
     FM011800 01008KT P6SM SCT060 BKN150=

USA.gov is the U.S. government's official web portal to all federal, state and local government web resources and services.